ASL71HR LCLK-LYBE
Flight info
| Callsign | ASL71HR |
|---|---|
| Flight time | 2h 24m |
| Altitude | 30000 |
| Route | PHA M31 GENOS DCT TOSKA DCT RUPUM DCT RIGRO DCT RUGAS DCT RAXAD DCT GAZON |
| Aircraft | A320/M-SDE3FGHIRWY/LB1 |
Departure
| Time | 2026-05-07 16:00 |
|---|---|
| Airport | Larnaca International Airport (LCLK) |
Arrival
| Time | 2026-05-07 18:24 |
|---|---|
| Airport | Belgrade Nikola Tesla Airport (LYBE) |
| Time | Latitude | Longitude | Altitude | Speed | Heading |
|---|---|---|---|---|---|
| 2026-05-07 15:28 | 34.88358 | 33.63105 | 12 ft | 0 kts | 43° |
| 2026-05-07 15:56 | 34.88359 | 33.63106 | 12 ft | 1 kts | 43° |
| 2026-05-07 15:56 | 34.88371 | 33.63120 | 12 ft | 4 kts | 43° |
| 2026-05-07 15:57 | 34.88382 | 33.63156 | 11 ft | 6 kts | 96° |
| 2026-05-07 15:57 | 34.88361 | 33.63205 | 11 ft | 7 kts | 110° |
| 2026-05-07 15:57 | 34.88385 | 33.63266 | 12 ft | 9 kts | 47° |
| 2026-05-07 15:57 | 34.88437 | 33.63330 | 12 ft | 12 kts | 47° |
| 2026-05-07 15:58 | 34.88418 | 33.63415 | 11 ft | 13 kts | 133° |
| 2026-05-07 15:58 | 34.88357 | 33.63491 | 11 ft | 15 kts | 135° |
| 2026-05-07 15:58 | 34.88268 | 33.63484 | 11 ft | 17 kts | 225° |
| 2026-05-07 15:58 | 34.88181 | 33.63377 | 12 ft | 19 kts | 226° |
| 2026-05-07 15:59 | 34.88054 | 33.63220 | 11 ft | 50 kts | 224° |
| 2026-05-07 15:59 | 34.87651 | 33.62737 | 13 ft | 110 kts | 225° |
| 2026-05-07 15:59 | 34.86992 | 33.61928 | 30 ft | 155 kts | 223° |
| 2026-05-07 15:59 | 34.86230 | 33.60980 | 550 ft | 157 kts | 226° |
| 2026-05-07 16:00 | 34.85483 | 33.60005 | 1206 ft | 158 kts | 224° |
| 2026-05-07 16:00 | 34.84697 | 33.58980 | 1543 ft | 177 kts | 226° |
| 2026-05-07 16:00 | 34.83804 | 33.57817 | 1804 ft | 199 kts | 227° |
| 2026-05-07 16:00 | 34.82800 | 33.56514 | 2053 ft | 224 kts | 228° |
| 2026-05-07 16:01 | 34.81670 | 33.55055 | 2401 ft | 249 kts | 228° |
| 2026-05-07 16:01 | 34.80433 | 33.53464 | 2940 ft | 266 kts | 228° |
| 2026-05-07 16:01 | 34.79155 | 33.51825 | 3819 ft | 271 kts | 228° |
| 2026-05-07 16:01 | 34.77843 | 33.50141 | 4706 ft | 277 kts | 229° |
| 2026-05-07 16:02 | 34.76508 | 33.48428 | 5583 ft | 282 kts | 229° |
| 2026-05-07 16:02 | 34.75145 | 33.46682 | 6455 ft | 286 kts | 229° |
| 2026-05-07 16:02 | 34.73761 | 33.44920 | 7298 ft | 289 kts | 228° |
| 2026-05-07 16:02 | 34.72365 | 33.43143 | 8143 ft | 292 kts | 227° |
| 2026-05-07 16:03 | 34.70953 | 33.41342 | 8988 ft | 296 kts | 227° |
| 2026-05-07 16:03 | 34.69627 | 33.39414 | 9804 ft | 299 kts | 238° |
| 2026-05-07 16:03 | 34.68653 | 33.37143 | 10345 ft | 311 kts | 251° |
| 2026-05-07 16:03 | 34.68114 | 33.34518 | 10536 ft | 332 kts | 265° |
| 2026-05-07 16:04 | 34.68106 | 33.31628 | 10693 ft | 353 kts | 275° |
| 2026-05-07 16:04 | 34.68253 | 33.28619 | 11092 ft | 365 kts | 275° |
| 2026-05-07 16:04 | 34.68391 | 33.25522 | 11729 ft | 369 kts | 274° |
| 2026-05-07 16:04 | 34.68521 | 33.22391 | 12423 ft | 372 kts | 274° |
| 2026-05-07 16:05 | 34.68644 | 33.19240 | 13114 ft | 375 kts | 274° |
| 2026-05-07 16:05 | 34.68765 | 33.16062 | 13796 ft | 378 kts | 274° |
| 2026-05-07 16:05 | 34.68887 | 33.12862 | 14426 ft | 380 kts | 274° |
| 2026-05-07 16:05 | 34.69009 | 33.09658 | 15082 ft | 380 kts | 274° |
| 2026-05-07 16:06 | 34.69133 | 33.06439 | 15731 ft | 381 kts | 275° |
| 2026-05-07 16:06 | 34.69258 | 33.03219 | 16368 ft | 383 kts | 275° |
| 2026-05-07 16:06 | 34.69384 | 32.99987 | 17028 ft | 384 kts | 275° |
| 2026-05-07 16:06 | 34.69508 | 32.96738 | 17685 ft | 386 kts | 275° |
| 2026-05-07 16:07 | 34.69632 | 32.93471 | 18345 ft | 388 kts | 275° |
| 2026-05-07 16:07 | 34.69754 | 32.90189 | 18925 ft | 390 kts | 275° |
| 2026-05-07 16:07 | 34.69879 | 32.86887 | 19457 ft | 393 kts | 275° |
| 2026-05-07 16:07 | 34.70007 | 32.83555 | 19991 ft | 396 kts | 275° |
| 2026-05-07 16:08 | 34.70136 | 32.80202 | 20510 ft | 398 kts | 275° |
| 2026-05-07 16:08 | 34.70262 | 32.76823 | 20998 ft | 401 kts | 275° |
| 2026-05-07 16:08 | 34.70385 | 32.73420 | 21470 ft | 404 kts | 275° |
| 2026-05-07 16:08 | 34.70504 | 32.70047 | 21931 ft | 406 kts | 275° |
| 2026-05-07 16:09 | 34.70623 | 32.66607 | 22384 ft | 408 kts | 275° |
| 2026-05-07 16:09 | 34.70743 | 32.63150 | 22784 ft | 411 kts | 275° |
| 2026-05-07 16:09 | 34.70864 | 32.59668 | 23176 ft | 414 kts | 275° |
| 2026-05-07 16:09 | 34.70986 | 32.56162 | 23583 ft | 417 kts | 275° |
| 2026-05-07 16:10 | 34.71108 | 32.52624 | 23931 ft | 419 kts | 275° |
| 2026-05-07 16:10 | 34.71107 | 32.49059 | 24271 ft | 424 kts | 270° |
| 2026-05-07 16:10 | 34.70921 | 32.45469 | 24612 ft | 426 kts | 270° |
| 2026-05-07 16:10 | 34.70730 | 32.41870 | 24942 ft | 428 kts | 269° |
| 2026-05-07 16:11 | 34.70537 | 32.38254 | 25279 ft | 430 kts | 269° |
| 2026-05-07 16:11 | 34.70342 | 32.34623 | 25607 ft | 432 kts | 269° |
| 2026-05-07 16:11 | 34.70146 | 32.30975 | 25939 ft | 434 kts | 269° |
| 2026-05-07 16:11 | 34.69952 | 32.27357 | 26266 ft | 436 kts | 269° |
| 2026-05-07 16:12 | 34.69753 | 32.23674 | 26587 ft | 438 kts | 269° |
| 2026-05-07 16:12 | 34.69551 | 32.19965 | 26911 ft | 440 kts | 269° |
| 2026-05-07 16:12 | 34.69348 | 32.16247 | 27223 ft | 442 kts | 269° |
| 2026-05-07 16:12 | 34.69143 | 32.12512 | 27528 ft | 444 kts | 269° |
| 2026-05-07 16:13 | 34.68937 | 32.08762 | 27832 ft | 446 kts | 269° |
| 2026-05-07 16:13 | 34.68731 | 32.04995 | 28128 ft | 448 kts | 270° |
| 2026-05-07 16:13 | 34.68522 | 32.01215 | 28409 ft | 449 kts | 269° |
| 2026-05-07 16:13 | 34.68309 | 31.97423 | 28687 ft | 450 kts | 269° |
| 2026-05-07 16:14 | 34.68094 | 31.93633 | 29077 ft | 449 kts | 270° |
| 2026-05-07 16:14 | 34.68072 | 31.89854 | 29466 ft | 444 kts | 278° |
| 2026-05-07 16:14 | 34.68521 | 31.86162 | 29859 ft | 440 kts | 284° |
| 2026-05-07 16:14 | 34.69108 | 31.82516 | 30248 ft | 439 kts | 284° |
| 2026-05-07 16:15 | 34.69685 | 31.78877 | 30594 ft | 438 kts | 284° |
| 2026-05-07 16:15 | 34.70255 | 31.75248 | 30988 ft | 435 kts | 284° |
| 2026-05-07 16:15 | 34.70822 | 31.71649 | 31381 ft | 433 kts | 284° |
| 2026-05-07 16:15 | 34.71387 | 31.68064 | 31762 ft | 431 kts | 284° |
| 2026-05-07 16:16 | 34.71951 | 31.64496 | 32055 ft | 430 kts | 285° |
| 2026-05-07 16:16 | 34.73069 | 31.57414 | 32125 ft | 429 kts | 285° |
| 2026-05-07 16:17 | 34.74185 | 31.50284 | 32128 ft | 428 kts | 285° |
| 2026-05-07 16:17 | 34.75295 | 31.43176 | 32131 ft | 427 kts | 285° |
| 2026-05-07 16:18 | 34.76394 | 31.36088 | 32130 ft | 427 kts | 285° |
| 2026-05-07 16:18 | 34.77491 | 31.28984 | 32132 ft | 427 kts | 285° |
| 2026-05-07 16:19 | 34.78588 | 31.21883 | 32135 ft | 427 kts | 285° |
| 2026-05-07 16:19 | 34.79676 | 31.14776 | 32147 ft | 427 kts | 284° |
| 2026-05-07 16:20 | 34.80758 | 31.07678 | 32153 ft | 426 kts | 284° |
| 2026-05-07 16:20 | 34.81838 | 31.00583 | 32154 ft | 426 kts | 284° |
| 2026-05-07 16:21 | 34.82913 | 30.93487 | 32145 ft | 426 kts | 284° |
| 2026-05-07 16:21 | 34.83981 | 30.86401 | 32151 ft | 426 kts | 284° |
| 2026-05-07 16:22 | 34.85044 | 30.79348 | 32152 ft | 426 kts | 284° |
| 2026-05-07 16:22 | 34.86108 | 30.72251 | 32154 ft | 426 kts | 284° |
| 2026-05-07 16:23 | 34.86989 | 30.66353 | 32155 ft | 426 kts | 284° |
| 2026-05-07 16:23 | 34.88037 | 30.59260 | 32155 ft | 426 kts | 284° |
| 2026-05-07 16:24 | 34.89092 | 30.52158 | 32153 ft | 426 kts | 284° |
| 2026-05-07 16:24 | 34.90140 | 30.45056 | 32157 ft | 426 kts | 284° |
| 2026-05-07 16:25 | 34.91179 | 30.37956 | 32149 ft | 426 kts | 284° |
| 2026-05-07 16:25 | 34.92207 | 30.30893 | 32152 ft | 426 kts | 284° |
| 2026-05-07 16:26 | 34.93247 | 30.23795 | 32159 ft | 426 kts | 284° |
| 2026-05-07 16:26 | 34.94275 | 30.16692 | 32160 ft | 426 kts | 283° |
| 2026-05-07 16:27 | 34.95296 | 30.09586 | 32156 ft | 426 kts | 283° |
| 2026-05-07 16:27 | 34.96337 | 30.02480 | 32153 ft | 424 kts | 286° |
| 2026-05-07 16:28 | 34.98510 | 29.95883 | 32157 ft | 419 kts | 300° |
| 2026-05-07 16:28 | 35.01313 | 29.89653 | 32155 ft | 419 kts | 300° |
| 2026-05-07 16:29 | 35.04107 | 29.83412 | 32158 ft | 419 kts | 300° |
| 2026-05-07 16:29 | 35.06894 | 29.77154 | 32154 ft | 419 kts | 300° |
| 2026-05-07 16:30 | 35.09677 | 29.70894 | 32155 ft | 419 kts | 300° |
| 2026-05-07 16:30 | 35.12464 | 29.64633 | 32154 ft | 420 kts | 300° |
| 2026-05-07 16:31 | 35.15230 | 29.58406 | 32156 ft | 420 kts | 300° |
| 2026-05-07 16:31 | 35.18016 | 29.52127 | 32145 ft | 420 kts | 299° |
| 2026-05-07 16:32 | 35.20789 | 29.45842 | 32155 ft | 420 kts | 299° |
| 2026-05-07 16:32 | 35.23570 | 29.39554 | 32154 ft | 420 kts | 299° |
| 2026-05-07 16:33 | 35.26350 | 29.33259 | 32150 ft | 421 kts | 299° |
| 2026-05-07 16:33 | 35.29124 | 29.26954 | 32156 ft | 421 kts | 299° |
| 2026-05-07 16:34 | 35.31896 | 29.20633 | 32144 ft | 421 kts | 299° |
| 2026-05-07 16:34 | 35.34661 | 29.14303 | 32156 ft | 421 kts | 299° |
| 2026-05-07 16:35 | 35.37428 | 29.07969 | 32154 ft | 421 kts | 299° |
| 2026-05-07 16:35 | 35.40180 | 29.01685 | 32156 ft | 421 kts | 299° |
| 2026-05-07 16:36 | 35.42947 | 28.95346 | 32154 ft | 421 kts | 298° |
| 2026-05-07 16:36 | 35.45703 | 28.89000 | 32168 ft | 421 kts | 298° |
| 2026-05-07 16:37 | 35.48460 | 28.82653 | 32163 ft | 422 kts | 298° |
| 2026-05-07 16:37 | 35.51214 | 28.76290 | 32153 ft | 422 kts | 298° |
| 2026-05-07 16:38 | 35.53963 | 28.69922 | 32156 ft | 422 kts | 298° |
| 2026-05-07 16:38 | 35.56719 | 28.63545 | 32156 ft | 422 kts | 298° |
| 2026-05-07 16:39 | 35.59448 | 28.57212 | 32154 ft | 422 kts | 298° |
| 2026-05-07 16:39 | 35.62190 | 28.50835 | 32158 ft | 422 kts | 298° |
| 2026-05-07 16:40 | 35.64928 | 28.44450 | 32159 ft | 422 kts | 298° |
| 2026-05-07 16:40 | 35.67659 | 28.38067 | 32161 ft | 422 kts | 298° |
| 2026-05-07 16:41 | 35.70382 | 28.31687 | 32168 ft | 420 kts | 298° |
| 2026-05-07 16:41 | 35.73094 | 28.25340 | 32169 ft | 418 kts | 299° |
| 2026-05-07 16:42 | 35.75792 | 28.19017 | 32167 ft | 417 kts | 298° |
| 2026-05-07 16:42 | 35.78481 | 28.12696 | 32166 ft | 416 kts | 298° |
| 2026-05-07 16:43 | 35.81162 | 28.06371 | 32164 ft | 416 kts | 299° |
| 2026-05-07 16:43 | 35.83825 | 28.00070 | 32166 ft | 414 kts | 299° |
| 2026-05-07 16:44 | 35.86483 | 27.93783 | 32165 ft | 413 kts | 299° |
| 2026-05-07 16:44 | 35.89135 | 27.87499 | 32163 ft | 413 kts | 299° |
| 2026-05-07 16:45 | 35.91785 | 27.81223 | 32166 ft | 412 kts | 299° |
| 2026-05-07 16:45 | 35.94428 | 27.74945 | 32165 ft | 412 kts | 299° |
| 2026-05-07 16:46 | 35.97042 | 27.68705 | 32162 ft | 412 kts | 298° |
| 2026-05-07 16:46 | 35.99667 | 27.62420 | 32162 ft | 412 kts | 298° |
| 2026-05-07 16:47 | 36.02294 | 27.56137 | 32162 ft | 412 kts | 298° |
| 2026-05-07 16:47 | 36.04927 | 27.49848 | 32160 ft | 412 kts | 298° |
| 2026-05-07 16:48 | 36.07542 | 27.43552 | 32168 ft | 411 kts | 298° |
| 2026-05-07 16:48 | 36.10422 | 27.37479 | 32166 ft | 410 kts | 309° |
| 2026-05-07 16:49 | 36.14599 | 27.32707 | 32166 ft | 410 kts | 320° |
| 2026-05-07 16:49 | 36.19070 | 27.28332 | 32162 ft | 410 kts | 320° |
| 2026-05-07 16:50 | 36.23533 | 27.23932 | 32158 ft | 410 kts | 320° |
| 2026-05-07 16:50 | 36.27991 | 27.19527 | 32155 ft | 410 kts | 320° |
| 2026-05-07 16:51 | 36.32449 | 27.15124 | 32154 ft | 410 kts | 320° |
| 2026-05-07 16:51 | 36.36917 | 27.10719 | 32170 ft | 410 kts | 320° |
| 2026-05-07 16:52 | 36.41381 | 27.06320 | 32168 ft | 410 kts | 320° |
| 2026-05-07 16:52 | 36.45841 | 27.01901 | 32168 ft | 410 kts | 320° |
| 2026-05-07 16:53 | 36.50293 | 26.97477 | 32166 ft | 410 kts | 319° |
| 2026-05-07 16:53 | 36.54714 | 26.93072 | 32164 ft | 410 kts | 319° |
| 2026-05-07 16:54 | 36.59166 | 26.88635 | 32159 ft | 410 kts | 319° |
| 2026-05-07 16:54 | 36.63618 | 26.84200 | 32167 ft | 410 kts | 319° |
| 2026-05-07 16:55 | 36.68065 | 26.79767 | 32169 ft | 410 kts | 319° |
| 2026-05-07 16:55 | 36.72510 | 26.75327 | 32169 ft | 409 kts | 319° |
| 2026-05-07 16:56 | 36.76945 | 26.70870 | 32161 ft | 409 kts | 319° |
| 2026-05-07 16:56 | 36.83593 | 26.64193 | 32166 ft | 409 kts | 319° |
| 2026-05-07 16:57 | 36.88021 | 26.59740 | 32158 ft | 409 kts | 319° |
| 2026-05-07 16:57 | 36.92451 | 26.55287 | 32183 ft | 408 kts | 319° |
| 2026-05-07 16:58 | 36.96856 | 26.50845 | 32176 ft | 405 kts | 318° |
| 2026-05-07 16:58 | 37.01227 | 26.46429 | 32179 ft | 403 kts | 318° |
| 2026-05-07 16:59 | 37.05581 | 26.42027 | 32176 ft | 402 kts | 318° |
| 2026-05-07 16:59 | 37.09920 | 26.37632 | 32170 ft | 401 kts | 318° |
| 2026-05-07 17:00 | 37.14249 | 26.33239 | 32171 ft | 400 kts | 318° |
| 2026-05-07 17:00 | 37.18573 | 26.28846 | 32166 ft | 400 kts | 318° |
| 2026-05-07 17:01 | 37.22895 | 26.24449 | 32165 ft | 400 kts | 318° |
| 2026-05-07 17:01 | 37.27211 | 26.20044 | 32163 ft | 400 kts | 318° |
| 2026-05-07 17:02 | 37.31533 | 26.15629 | 32161 ft | 400 kts | 318° |
| 2026-05-07 17:02 | 37.35853 | 26.11215 | 32156 ft | 400 kts | 318° |
| 2026-05-07 17:03 | 37.40140 | 26.06821 | 32155 ft | 400 kts | 318° |
| 2026-05-07 17:03 | 37.44452 | 26.02390 | 32153 ft | 400 kts | 318° |
| 2026-05-07 17:04 | 37.48762 | 25.97967 | 32158 ft | 400 kts | 318° |
| 2026-05-07 17:04 | 37.53075 | 25.93525 | 32150 ft | 401 kts | 318° |
| 2026-05-07 17:05 | 37.57393 | 25.89074 | 32151 ft | 401 kts | 318° |
| 2026-05-07 17:05 | 37.62011 | 25.85084 | 32148 ft | 404 kts | 324° |
| 2026-05-07 17:06 | 37.66804 | 25.81375 | 32149 ft | 404 kts | 324° |
| 2026-05-07 17:06 | 37.71588 | 25.77659 | 32151 ft | 404 kts | 324° |
| 2026-05-07 17:07 | 37.76377 | 25.73939 | 32150 ft | 404 kts | 324° |
| 2026-05-07 17:07 | 37.81163 | 25.70213 | 32148 ft | 404 kts | 324° |
| 2026-05-07 17:08 | 37.85947 | 25.66485 | 32148 ft | 404 kts | 324° |
| 2026-05-07 17:08 | 37.90727 | 25.62752 | 32144 ft | 403 kts | 324° |
| 2026-05-07 17:09 | 37.95498 | 25.59018 | 32150 ft | 403 kts | 324° |
| 2026-05-07 17:09 | 38.00262 | 25.55286 | 32152 ft | 402 kts | 324° |
| 2026-05-07 17:10 | 38.04224 | 25.52179 | 32143 ft | 404 kts | 324° |
| 2026-05-07 17:10 | 38.09010 | 25.48415 | 32114 ft | 406 kts | 324° |
| 2026-05-07 17:11 | 38.13816 | 25.44632 | 32110 ft | 407 kts | 324° |
| 2026-05-07 17:11 | 38.18631 | 25.40840 | 32115 ft | 408 kts | 324° |
| 2026-05-07 17:12 | 38.23462 | 25.37028 | 32119 ft | 408 kts | 324° |
| 2026-05-07 17:12 | 38.28287 | 25.33220 | 32124 ft | 409 kts | 324° |
| 2026-05-07 17:13 | 38.33123 | 25.29396 | 32121 ft | 410 kts | 324° |
| 2026-05-07 17:13 | 38.37971 | 25.25550 | 32117 ft | 411 kts | 324° |
| 2026-05-07 17:14 | 38.42826 | 25.21693 | 32119 ft | 411 kts | 324° |
| 2026-05-07 17:14 | 38.47686 | 25.17824 | 32119 ft | 412 kts | 324° |
| 2026-05-07 17:15 | 38.52544 | 25.13948 | 32122 ft | 412 kts | 324° |
| 2026-05-07 17:15 | 38.57408 | 25.10062 | 32111 ft | 414 kts | 324° |
| 2026-05-07 17:16 | 38.62306 | 25.06150 | 32098 ft | 416 kts | 324° |
| 2026-05-07 17:16 | 38.67224 | 25.02212 | 32094 ft | 418 kts | 324° |
| 2026-05-07 17:17 | 38.72150 | 24.98267 | 32116 ft | 417 kts | 324° |
| 2026-05-07 17:17 | 38.77063 | 24.94321 | 32131 ft | 416 kts | 324° |
| 2026-05-07 17:18 | 38.81934 | 24.90394 | 32141 ft | 417 kts | 324° |
| 2026-05-07 17:18 | 38.86855 | 24.86425 | 32107 ft | 419 kts | 324° |
| 2026-05-07 17:19 | 38.91794 | 24.82436 | 32103 ft | 420 kts | 324° |
| 2026-05-07 17:19 | 38.96746 | 24.78435 | 32108 ft | 421 kts | 324° |
| 2026-05-07 17:20 | 39.01701 | 24.74422 | 32109 ft | 421 kts | 324° |
| 2026-05-07 17:20 | 39.06658 | 24.70398 | 32127 ft | 422 kts | 324° |
| 2026-05-07 17:21 | 39.11646 | 24.66351 | 32084 ft | 426 kts | 324° |
| 2026-05-07 17:21 | 39.16666 | 24.62271 | 32083 ft | 428 kts | 324° |
| 2026-05-07 17:22 | 39.21713 | 24.58155 | 32093 ft | 430 kts | 324° |
| 2026-05-07 17:22 | 39.26777 | 24.54018 | 32097 ft | 431 kts | 324° |
| 2026-05-07 17:23 | 39.31836 | 24.49873 | 32114 ft | 431 kts | 324° |
| 2026-05-07 17:23 | 39.36916 | 24.45707 | 32090 ft | 433 kts | 324° |
| 2026-05-07 17:24 | 39.42008 | 24.41519 | 32093 ft | 435 kts | 324° |
| 2026-05-07 17:24 | 39.47115 | 24.37318 | 32111 ft | 435 kts | 324° |
| 2026-05-07 17:25 | 39.52212 | 24.33121 | 32127 ft | 434 kts | 324° |
| 2026-05-07 17:25 | 39.57297 | 24.28923 | 32142 ft | 433 kts | 324° |
| 2026-05-07 17:26 | 39.62389 | 24.24707 | 32102 ft | 435 kts | 324° |
| 2026-05-07 17:26 | 39.67505 | 24.20462 | 32092 ft | 437 kts | 324° |
| 2026-05-07 17:27 | 39.72639 | 24.16203 | 32098 ft | 438 kts | 324° |
| 2026-05-07 17:27 | 39.77784 | 24.11936 | 32096 ft | 439 kts | 324° |
| 2026-05-07 17:28 | 39.82930 | 24.07655 | 32115 ft | 439 kts | 324° |
| 2026-05-07 17:28 | 39.88045 | 24.03374 | 32117 ft | 440 kts | 324° |
| 2026-05-07 17:29 | 39.93191 | 23.99065 | 32128 ft | 439 kts | 324° |
| 2026-05-07 17:29 | 39.98333 | 23.94761 | 32123 ft | 439 kts | 324° |
| 2026-05-07 17:30 | 40.03467 | 23.90464 | 32130 ft | 439 kts | 324° |
| 2026-05-07 17:30 | 40.08598 | 23.86152 | 32130 ft | 439 kts | 324° |
| 2026-05-07 17:31 | 40.13746 | 23.81810 | 32104 ft | 442 kts | 324° |
| 2026-05-07 17:31 | 40.18921 | 23.77443 | 32098 ft | 443 kts | 324° |
| 2026-05-07 17:32 | 40.24104 | 23.73070 | 32121 ft | 443 kts | 323° |
| 2026-05-07 17:32 | 40.29264 | 23.68704 | 32146 ft | 441 kts | 323° |
| 2026-05-07 17:33 | 40.34394 | 23.64346 | 32150 ft | 439 kts | 323° |
| 2026-05-07 17:33 | 40.39512 | 23.59993 | 32145 ft | 438 kts | 323° |
| 2026-05-07 17:34 | 40.44616 | 23.55641 | 32147 ft | 437 kts | 323° |
| 2026-05-07 17:34 | 40.49711 | 23.51294 | 32136 ft | 436 kts | 323° |
| 2026-05-07 17:35 | 40.54799 | 23.46947 | 32149 ft | 436 kts | 323° |
| 2026-05-07 17:35 | 40.59886 | 23.42584 | 32128 ft | 438 kts | 323° |
| 2026-05-07 17:36 | 40.64987 | 23.38218 | 32136 ft | 437 kts | 323° |
| 2026-05-07 17:36 | 40.70075 | 23.33852 | 32144 ft | 436 kts | 323° |
| 2026-05-07 17:37 | 40.75120 | 23.29510 | 32151 ft | 435 kts | 323° |
| 2026-05-07 17:37 | 40.80217 | 23.25109 | 32153 ft | 435 kts | 323° |
| 2026-05-07 17:38 | 40.85283 | 23.20727 | 32150 ft | 436 kts | 323° |
| 2026-05-07 17:38 | 40.90168 | 23.16495 | 32128 ft | 437 kts | 323° |
| 2026-05-07 17:39 | 40.94027 | 23.13153 | 32125 ft | 438 kts | 323° |
| 2026-05-07 17:39 | 40.99089 | 23.08766 | 32138 ft | 438 kts | 323° |
| 2026-05-07 17:40 | 41.04176 | 23.04340 | 32153 ft | 437 kts | 323° |
| 2026-05-07 17:40 | 41.09256 | 22.99914 | 32158 ft | 437 kts | 323° |
| 2026-05-07 17:41 | 41.14341 | 22.95467 | 32142 ft | 438 kts | 323° |
| 2026-05-07 17:41 | 41.19433 | 22.91006 | 32136 ft | 439 kts | 323° |
| 2026-05-07 17:42 | 41.24529 | 22.86535 | 32137 ft | 439 kts | 323° |
| 2026-05-07 17:42 | 41.29628 | 22.82054 | 32137 ft | 439 kts | 323° |
| 2026-05-07 17:43 | 41.34953 | 22.78021 | 32151 ft | 445 kts | 333° |
| 2026-05-07 17:43 | 41.40667 | 22.74873 | 32170 ft | 444 kts | 333° |
| 2026-05-07 17:44 | 41.46366 | 22.71721 | 32161 ft | 443 kts | 333° |
| 2026-05-07 17:44 | 41.52055 | 22.68568 | 32164 ft | 442 kts | 333° |
| 2026-05-07 17:45 | 41.57737 | 22.65412 | 32155 ft | 443 kts | 333° |
| 2026-05-07 17:45 | 41.63427 | 22.62242 | 32140 ft | 443 kts | 333° |
| 2026-05-07 17:46 | 41.69126 | 22.59069 | 32144 ft | 444 kts | 333° |
| 2026-05-07 17:46 | 41.74826 | 22.55884 | 32135 ft | 444 kts | 333° |
| 2026-05-07 17:47 | 41.80535 | 22.52694 | 32124 ft | 445 kts | 333° |
| 2026-05-07 17:47 | 41.86256 | 22.49498 | 32120 ft | 446 kts | 333° |
| 2026-05-07 17:48 | 41.91981 | 22.46277 | 32120 ft | 446 kts | 333° |
| 2026-05-07 17:48 | 41.97704 | 22.43053 | 32139 ft | 445 kts | 333° |
| 2026-05-07 17:49 | 42.03417 | 22.39823 | 32139 ft | 445 kts | 333° |
| 2026-05-07 17:49 | 42.09132 | 22.36595 | 32132 ft | 445 kts | 333° |
| 2026-05-07 17:50 | 42.14846 | 22.33365 | 32135 ft | 445 kts | 333° |
| 2026-05-07 17:50 | 42.20556 | 22.30130 | 32145 ft | 445 kts | 333° |
| 2026-05-07 17:51 | 42.26269 | 22.26883 | 32128 ft | 446 kts | 333° |
| 2026-05-07 17:51 | 42.31971 | 22.23583 | 32125 ft | 445 kts | 331° |
| 2026-05-07 17:52 | 42.37490 | 22.19826 | 32119 ft | 444 kts | 328° |
| 2026-05-07 17:52 | 42.42906 | 22.15815 | 32122 ft | 443 kts | 328° |
| 2026-05-07 17:53 | 42.48015 | 22.12065 | 32111 ft | 444 kts | 328° |
| 2026-05-07 17:53 | 42.53484 | 22.08172 | 32109 ft | 444 kts | 329° |
| 2026-05-07 17:54 | 42.58964 | 22.04305 | 32108 ft | 444 kts | 329° |
| 2026-05-07 17:54 | 42.64431 | 22.00413 | 32099 ft | 443 kts | 329° |
| 2026-05-07 17:55 | 42.69889 | 21.96507 | 32093 ft | 443 kts | 329° |
| 2026-05-07 17:55 | 42.75343 | 21.92592 | 32088 ft | 443 kts | 329° |
| 2026-05-07 17:56 | 42.80796 | 21.88668 | 32092 ft | 443 kts | 329° |
| 2026-05-07 17:56 | 42.85326 | 21.85406 | 32096 ft | 443 kts | 329° |
| 2026-05-07 17:57 | 42.90789 | 21.81466 | 32103 ft | 444 kts | 329° |
| 2026-05-07 17:57 | 42.96244 | 21.77530 | 32083 ft | 444 kts | 329° |
| 2026-05-07 17:58 | 43.01699 | 21.73585 | 32083 ft | 443 kts | 328° |
| 2026-05-07 17:58 | 43.07145 | 21.69625 | 32072 ft | 443 kts | 328° |
| 2026-05-07 17:59 | 43.12592 | 21.65657 | 32070 ft | 444 kts | 329° |
| 2026-05-07 17:59 | 43.18061 | 21.61680 | 32050 ft | 445 kts | 328° |
| 2026-05-07 18:00 | 43.23536 | 21.57683 | 32047 ft | 446 kts | 328° |
| 2026-05-07 18:00 | 43.29017 | 21.53670 | 32053 ft | 447 kts | 328° |
| 2026-05-07 18:01 | 43.34471 | 21.49673 | 32048 ft | 448 kts | 328° |
| 2026-05-07 18:01 | 43.39970 | 21.45635 | 32045 ft | 449 kts | 328° |
| 2026-05-07 18:02 | 43.48229 | 21.39553 | 32051 ft | 449 kts | 328° |
| 2026-05-07 18:03 | 43.53730 | 21.35479 | 32050 ft | 449 kts | 328° |
| 2026-05-07 18:03 | 43.59244 | 21.31402 | 32057 ft | 450 kts | 328° |
| 2026-05-07 18:04 | 43.64764 | 21.27313 | 32050 ft | 450 kts | 328° |
| 2026-05-07 18:04 | 43.70284 | 21.23220 | 32045 ft | 450 kts | 328° |
| 2026-05-07 18:05 | 43.75807 | 21.19110 | 32046 ft | 451 kts | 328° |
| 2026-05-07 18:05 | 43.78570 | 21.17050 | 31812 ft | 450 kts | 328° |
| 2026-05-07 18:05 | 43.81330 | 21.14991 | 30759 ft | 454 kts | 328° |
| 2026-05-07 18:05 | 43.84123 | 21.12901 | 29547 ft | 458 kts | 328° |
| 2026-05-07 18:06 | 43.86924 | 21.10802 | 28394 ft | 458 kts | 328° |
| 2026-05-07 18:06 | 43.89726 | 21.08698 | 27212 ft | 459 kts | 328° |
| 2026-05-07 18:06 | 43.92539 | 21.06586 | 25991 ft | 460 kts | 328° |
| 2026-05-07 18:06 | 43.95317 | 21.04505 | 24812 ft | 447 kts | 328° |
| 2026-05-07 18:07 | 43.98026 | 21.02479 | 23734 ft | 440 kts | 328° |
| 2026-05-07 18:07 | 44.00732 | 21.00451 | 22504 ft | 444 kts | 328° |
| 2026-05-07 18:07 | 44.03425 | 20.98428 | 21523 ft | 432 kts | 328° |
| 2026-05-07 18:07 | 44.06061 | 20.96441 | 20624 ft | 430 kts | 328° |
| 2026-05-07 18:08 | 44.08686 | 20.94453 | 19709 ft | 429 kts | 328° |
| 2026-05-07 18:08 | 44.11298 | 20.92469 | 18821 ft | 427 kts | 328° |
| 2026-05-07 18:08 | 44.13905 | 20.90487 | 17863 ft | 426 kts | 329° |
| 2026-05-07 18:08 | 44.16500 | 20.88514 | 16942 ft | 423 kts | 328° |
| 2026-05-07 18:09 | 44.19049 | 20.86471 | 15892 ft | 424 kts | 326° |
| 2026-05-07 18:09 | 44.21557 | 20.84328 | 14832 ft | 423 kts | 325° |
| 2026-05-07 18:09 | 44.24167 | 20.82585 | 13813 ft | 413 kts | 342° |
| 2026-05-07 18:09 | 44.27004 | 20.82308 | 12733 ft | 414 kts | 5° |
| 2026-05-07 18:10 | 44.29804 | 20.83319 | 11779 ft | 418 kts | 19° |
| 2026-05-07 18:10 | 44.32415 | 20.85069 | 10981 ft | 410 kts | 28° |
| 2026-05-07 18:10 | 44.34749 | 20.87084 | 10598 ft | 378 kts | 32° |
| 2026-05-07 18:10 | 44.36863 | 20.89013 | 10383 ft | 349 kts | 31° |
| 2026-05-07 18:11 | 44.38843 | 20.90735 | 10213 ft | 323 kts | 29° |
| 2026-05-07 18:11 | 44.40107 | 20.91761 | 10050 ft | 311 kts | 27° |
| 2026-05-07 18:11 | 44.42574 | 20.93619 | 9657 ft | 291 kts | 25° |
| 2026-05-07 18:11 | 44.44329 | 20.94871 | 9420 ft | 276 kts | 25° |
| 2026-05-07 18:12 | 44.46008 | 20.96047 | 9186 ft | 263 kts | 24° |
| 2026-05-07 18:12 | 44.47633 | 20.97090 | 8953 ft | 251 kts | 13° |
| 2026-05-07 18:12 | 44.49322 | 20.97388 | 8719 ft | 241 kts | 351° |
| 2026-05-07 18:12 | 44.50919 | 20.96857 | 8491 ft | 233 kts | 330° |
| 2026-05-07 18:13 | 44.52247 | 20.95646 | 8269 ft | 225 kts | 311° |
| 2026-05-07 18:13 | 44.53183 | 20.93982 | 8049 ft | 218 kts | 298° |
| 2026-05-07 18:13 | 44.54012 | 20.92172 | 7812 ft | 218 kts | 298° |
| 2026-05-07 18:13 | 44.54822 | 20.90417 | 7596 ft | 217 kts | 298° |
| 2026-05-07 18:14 | 44.55651 | 20.88622 | 7373 ft | 215 kts | 299° |
| 2026-05-07 18:14 | 44.56449 | 20.86890 | 7155 ft | 213 kts | 299° |
| 2026-05-07 18:14 | 44.57252 | 20.85153 | 6937 ft | 212 kts | 299° |
| 2026-05-07 18:14 | 44.58053 | 20.83421 | 6710 ft | 211 kts | 299° |
| 2026-05-07 18:15 | 44.58849 | 20.81696 | 6499 ft | 210 kts | 299° |
| 2026-05-07 18:15 | 44.59642 | 20.79979 | 6284 ft | 209 kts | 300° |
| 2026-05-07 18:15 | 44.60443 | 20.78237 | 6085 ft | 210 kts | 300° |
| 2026-05-07 18:15 | 44.61223 | 20.76540 | 5887 ft | 210 kts | 300° |
| 2026-05-07 18:16 | 44.62072 | 20.74871 | 5680 ft | 211 kts | 303° |
| 2026-05-07 18:16 | 44.62914 | 20.73193 | 5484 ft | 210 kts | 300° |
| 2026-05-07 18:16 | 44.63707 | 20.71479 | 5285 ft | 209 kts | 299° |
| 2026-05-07 18:16 | 44.64484 | 20.69757 | 5084 ft | 209 kts | 299° |
| 2026-05-07 18:17 | 44.65261 | 20.68030 | 4884 ft | 209 kts | 299° |
| 2026-05-07 18:17 | 44.66037 | 20.66304 | 4685 ft | 209 kts | 299° |
| 2026-05-07 18:17 | 44.66812 | 20.64580 | 4480 ft | 209 kts | 299° |
| 2026-05-07 18:17 | 44.67588 | 20.62851 | 4282 ft | 209 kts | 299° |
| 2026-05-07 18:18 | 44.68363 | 20.61125 | 4080 ft | 209 kts | 299° |
| 2026-05-07 18:18 | 44.69139 | 20.59396 | 3880 ft | 209 kts | 299° |
| 2026-05-07 18:18 | 44.69914 | 20.57667 | 3679 ft | 209 kts | 300° |
| 2026-05-07 18:18 | 44.70684 | 20.55948 | 3475 ft | 207 kts | 300° |
| 2026-05-07 18:19 | 44.71441 | 20.54260 | 3300 ft | 201 kts | 299° |
| 2026-05-07 18:19 | 44.72171 | 20.52628 | 3164 ft | 194 kts | 299° |
| 2026-05-07 18:19 | 44.72882 | 20.51038 | 3075 ft | 190 kts | 299° |
| 2026-05-07 18:19 | 44.73584 | 20.49466 | 3045 ft | 190 kts | 299° |
| 2026-05-07 18:20 | 44.74271 | 20.47930 | 2867 ft | 179 kts | 299° |
| 2026-05-07 18:20 | 44.74913 | 20.46494 | 2659 ft | 168 kts | 299° |
| 2026-05-07 18:20 | 44.75516 | 20.45143 | 2447 ft | 159 kts | 299° |
| 2026-05-07 18:20 | 44.76087 | 20.43864 | 2234 ft | 149 kts | 298° |
| 2026-05-07 18:21 | 44.76620 | 20.42668 | 2062 ft | 141 kts | 299° |
| 2026-05-07 18:21 | 44.77132 | 20.41517 | 1898 ft | 137 kts | 299° |
| 2026-05-07 18:21 | 44.77635 | 20.40388 | 1709 ft | 134 kts | 298° |
| 2026-05-07 18:21 | 44.78131 | 20.39272 | 1522 ft | 135 kts | 298° |
| 2026-05-07 18:22 | 44.78633 | 20.38144 | 1338 ft | 136 kts | 298° |
| 2026-05-07 18:22 | 44.78964 | 20.37401 | 1212 ft | 135 kts | 298° |
| 2026-05-07 18:22 | 44.79628 | 20.35909 | 972 ft | 133 kts | 298° |
| 2026-05-07 18:22 | 44.80121 | 20.34799 | 789 ft | 135 kts | 300° |
| 2026-05-07 18:23 | 44.80618 | 20.33681 | 617 ft | 134 kts | 300° |
| 2026-05-07 18:23 | 44.81108 | 20.32576 | 402 ft | 132 kts | 299° |
| 2026-05-07 18:23 | 44.81586 | 20.31498 | 311 ft | 123 kts | 296° |
| 2026-05-07 18:23 | 44.81959 | 20.30649 | 309 ft | 78 kts | 302° |
| 2026-05-07 18:24 | 44.82112 | 20.30301 | 305 ft | 24 kts | 300° |
| 2026-05-07 18:24 | 44.82163 | 20.30139 | 305 ft | 17 kts | 280° |
| 2026-05-07 18:24 | 44.82169 | 20.30008 | 308 ft | 13 kts | 271° |
| 2026-05-07 18:24 | 44.82170 | 20.29949 | 310 ft | 0 kts | 271° |
| 2026-05-07 18:26 | 44.82170 | 20.29946 | 310 ft | 1 kts | 271° |
| 2026-05-07 18:26 | 44.82170 | 20.29921 | 307 ft | 4 kts | 271° |
| 2026-05-07 18:27 | 44.82170 | 20.29868 | 307 ft | 7 kts | 271° |
| 2026-05-07 18:27 | 44.82171 | 20.29781 | 310 ft | 11 kts | 270° |
| 2026-05-07 18:27 | 44.82195 | 20.29669 | 309 ft | 13 kts | 291° |
| 2026-05-07 18:27 | 44.82171 | 20.29593 | 309 ft | 14 kts | 216° |
| 2026-05-07 18:28 | 44.82050 | 20.29483 | 308 ft | 12 kts | 212° |
| 2026-05-07 18:28 | 44.82002 | 20.29442 | 307 ft | 5 kts | 211° |
| 2026-05-07 18:28 | 44.81991 | 20.29397 | 307 ft | 6 kts | 300° |
| 2026-05-07 18:28 | 44.82008 | 20.29364 | 308 ft | 0 kts | 303° |
| 2026-05-07 18:29 | 44.82013 | 20.29353 | 308 ft | 0 kts | 302° |
| 2026-05-07 18:29 | 44.82014 | 20.29351 | 308 ft | 0 kts | 302° |
| 2026-05-07 18:33 | 44.82014 | 20.29350 | 308 ft | 0 kts | 302° |